createdAt,value
2018-08-06T00:00:57.743Z,0.00
2018-08-06T00:01:57.730Z,0.00
2018-08-06T00:02:57.733Z,0.00
2018-08-06T00:03:57.821Z,0.00
2018-08-06T00:04:57.762Z,0.00
2018-08-06T00:05:57.758Z,0.00
2018-08-06T00:06:57.812Z,0.00
2018-08-06T00:07:57.850Z,0.00
2018-08-06T00:08:57.838Z,0.00
2018-08-06T00:09:57.857Z,0.00
2018-08-06T00:10:57.878Z,0.00
2018-08-06T00:11:57.864Z,0.00
2018-08-06T00:12:57.857Z,0.00
2018-08-06T00:13:57.881Z,0.00
2018-08-06T00:14:57.913Z,0.00
2018-08-06T00:15:57.982Z,0.00
2018-08-06T00:16:57.930Z,0.00
2018-08-06T00:17:57.940Z,0.00
2018-08-06T00:18:57.937Z,0.00
2018-08-06T00:19:57.940Z,0.00
2018-08-06T00:20:57.983Z,0.00
2018-08-06T00:21:58.044Z,0.00
2018-08-06T00:22:58.043Z,0.00
2018-08-06T00:23:58.010Z,0.00
2018-08-06T00:24:58.051Z,0.00
2018-08-06T00:25:58.037Z,0.00
2018-08-06T00:26:58.124Z,0.00
2018-08-06T00:27:58.069Z,0.00
2018-08-06T00:28:58.070Z,0.00
2018-08-06T00:29:58.093Z,0.00
2018-08-06T00:30:58.118Z,0.00
2018-08-06T00:31:58.137Z,0.00
2018-08-06T00:32:58.123Z,0.00
2018-08-06T00:33:58.155Z,0.00
2018-08-06T00:34:58.135Z,0.00
2018-08-06T00:35:58.162Z,0.00
2018-08-06T00:36:58.236Z,0.00
2018-08-06T00:37:58.183Z,0.00
2018-08-06T00:38:58.196Z,0.00
2018-08-06T00:39:58.240Z,0.00
2018-08-06T00:40:58.261Z,0.00
2018-08-06T00:41:58.259Z,0.00
2018-08-06T00:42:58.245Z,0.00
2018-08-06T00:43:58.260Z,0.00
2018-08-06T00:44:58.266Z,0.00
2018-08-06T00:45:58.273Z,0.00
2018-08-06T00:46:58.370Z,0.00
2018-08-06T00:47:58.698Z,0.00
2018-08-06T00:48:58.372Z,0.00
2018-08-06T00:49:58.357Z,0.00
2018-08-06T00:50:58.358Z,0.00
2018-08-06T00:51:58.454Z,0.00
2018-08-06T00:52:58.387Z,0.00
2018-08-06T00:53:58.416Z,0.00
2018-08-06T00:54:58.425Z,0.00
2018-08-06T00:55:58.437Z,0.00
2018-08-06T00:56:58.434Z,0.00
2018-08-06T00:57:58.480Z,0.00
2018-08-06T00:58:58.465Z,0.00
2018-08-06T00:59:58.527Z,0.00
2018-08-06T01:00:58.514Z,0.00
2018-08-06T01:01:58.478Z,0.00
2018-08-06T01:02:58.511Z,0.00
2018-08-06T01:03:58.522Z,0.00
2018-08-06T01:04:58.542Z,0.00
2018-08-06T01:05:58.583Z,0.00
2018-08-06T01:06:58.592Z,0.00
2018-08-06T01:07:58.532Z,0.00
2018-08-06T01:08:58.572Z,0.00
2018-08-06T01:09:58.588Z,0.00
2018-08-06T01:10:58.579Z,0.00
2018-08-06T01:11:58.654Z,0.00
2018-08-06T01:12:58.638Z,0.00
2018-08-06T01:13:58.638Z,0.00
2018-08-06T01:14:58.633Z,0.00
2018-08-06T01:15:58.655Z,0.00
2018-08-06T01:16:58.716Z,0.00
2018-08-06T01:17:58.682Z,0.00
2018-08-06T01:18:58.755Z,0.00
2018-08-06T01:19:58.750Z,0.00
2018-08-06T01:20:58.733Z,0.00
2018-08-06T01:21:58.760Z,0.00
2018-08-06T01:22:58.778Z,0.00
2018-08-06T01:23:58.870Z,0.00
2018-08-06T01:24:58.779Z,0.00
2018-08-06T01:25:58.783Z,0.00
2018-08-06T01:26:58.804Z,0.00
2018-08-06T01:27:58.814Z,0.00
2018-08-06T01:28:58.888Z,0.00
2018-08-06T01:29:58.862Z,0.00
2018-08-06T01:30:58.879Z,0.00
2018-08-06T01:31:58.891Z,0.00
2018-08-06T01:32:58.906Z,0.00
2018-08-06T01:33:58.928Z,0.00
2018-08-06T01:34:58.921Z,0.00
2018-08-06T01:35:58.888Z,0.00
2018-08-06T01:36:58.953Z,0.00
2018-08-06T01:37:58.948Z,0.00
2018-08-06T01:38:58.960Z,0.00
2018-08-06T01:39:58.965Z,0.00
2018-08-06T01:40:58.966Z,0.00
2018-08-06T01:41:59.023Z,0.00
2018-08-06T01:42:58.994Z,0.00
2018-08-06T01:43:59.029Z,0.00
2018-08-06T01:44:59.021Z,0.00
2018-08-06T01:45:59.056Z,0.00
2018-08-06T01:46:59.107Z,0.00
2018-08-06T01:47:59.062Z,0.00
2018-08-06T01:48:59.068Z,0.00
2018-08-06T01:49:59.084Z,0.00
2018-08-06T01:50:59.103Z,0.00
2018-08-06T01:51:59.283Z,0.00
2018-08-06T01:52:59.114Z,0.00
2018-08-06T01:53:59.141Z,0.00
2018-08-06T01:54:59.171Z,0.00
2018-08-06T01:55:59.144Z,0.00
2018-08-06T01:56:59.184Z,0.00
2018-08-06T01:57:59.181Z,0.00
2018-08-06T01:58:59.195Z,0.00
2018-08-06T01:59:59.192Z,0.00
2018-08-06T02:00:59.238Z,0.00
2018-08-06T02:01:59.278Z,0.00
2018-08-06T02:02:59.254Z,0.00
2018-08-06T02:03:59.270Z,0.00
2018-08-06T02:04:59.302Z,0.00
2018-08-06T02:05:59.300Z,0.00
2018-08-06T02:06:59.300Z,0.00
2018-08-06T02:07:59.281Z,0.00
2018-08-06T02:08:59.317Z,0.00
2018-08-06T02:09:59.385Z,0.00
2018-08-06T02:10:59.385Z,0.00
2018-08-06T02:11:59.339Z,0.00
2018-08-06T02:12:59.417Z,0.00
2018-08-06T02:13:59.377Z,0.00
2018-08-06T02:14:59.359Z,0.00
2018-08-06T02:15:59.402Z,0.00
2018-08-06T02:16:59.465Z,0.00
2018-08-06T02:17:59.429Z,0.00
2018-08-06T02:18:59.442Z,0.00
2018-08-06T02:19:59.459Z,0.00
2018-08-06T02:20:59.449Z,0.00
2018-08-06T02:21:59.501Z,0.00
2018-08-06T02:22:59.462Z,0.00
2018-08-06T02:23:59.504Z,0.00
2018-08-06T02:24:59.519Z,0.00
2018-08-06T02:25:59.596Z,0.00
2018-08-06T02:26:59.607Z,0.00
2018-08-06T02:27:59.548Z,0.00
2018-08-06T02:28:59.552Z,0.00
2018-08-06T02:29:59.573Z,0.00
2018-08-06T02:30:59.624Z,0.00
2018-08-06T02:31:59.631Z,0.00
2018-08-06T02:32:59.628Z,0.00
2018-08-06T02:33:59.628Z,0.00
2018-08-06T02:34:59.658Z,0.00
2018-08-06T02:35:59.691Z,0.00
2018-08-06T02:36:59.668Z,0.00
2018-08-06T02:37:59.673Z,0.00
2018-08-06T02:38:59.723Z,0.00
2018-08-06T02:39:59.699Z,0.00
2018-08-06T02:40:59.953Z,0.00
2018-08-06T02:41:59.718Z,0.00
2018-08-06T02:42:59.756Z,0.00
2018-08-06T02:43:59.766Z,0.00
2018-08-06T02:44:59.744Z,0.00
2018-08-06T02:45:59.764Z,0.00
2018-08-06T02:46:59.807Z,0.00
2018-08-06T02:47:59.797Z,0.00
2018-08-06T02:48:59.811Z,0.00
2018-08-06T02:49:59.808Z,0.00
2018-08-06T02:50:59.834Z,0.00
2018-08-06T02:51:59.858Z,0.00
2018-08-06T02:52:59.838Z,0.00
2018-08-06T02:53:59.902Z,0.00
2018-08-06T02:54:59.865Z,0.00
2018-08-06T02:55:59.903Z,0.00
2018-08-06T02:56:59.906Z,0.00
2018-08-06T02:57:59.916Z,0.00
2018-08-06T02:58:59.957Z,0.00
2018-08-06T03:00:00.002Z,0.00
2018-08-06T03:00:59.957Z,0.00
2018-08-06T03:01:59.960Z,0.00
2018-08-06T03:02:59.987Z,0.00
2018-08-06T03:04:00.198Z,0.00
2018-08-06T03:05:00.043Z,0.00
2018-08-06T03:06:00.000Z,0.00
2018-08-06T03:07:00.017Z,0.00
2018-08-06T03:08:00.029Z,0.00
2018-08-06T03:09:00.015Z,0.00
2018-08-06T03:10:00.093Z,0.00
2018-08-06T03:11:00.054Z,0.00
2018-08-06T03:12:00.108Z,0.00
2018-08-06T03:13:00.082Z,0.00
2018-08-06T03:14:00.139Z,0.00
2018-08-06T03:15:00.140Z,0.00
2018-08-06T03:16:00.125Z,0.00
2018-08-06T03:17:00.211Z,0.00
2018-08-06T03:18:00.127Z,0.00
2018-08-06T03:19:00.169Z,0.00
2018-08-06T03:20:00.259Z,0.00
2018-08-06T03:21:00.174Z,0.00
2018-08-06T03:22:00.215Z,0.00
2018-08-06T03:23:00.239Z,0.00
2018-08-06T03:24:03.688Z,0.00
2018-08-06T03:25:00.217Z,0.00
2018-08-06T03:26:00.273Z,5.63
2018-08-06T03:27:00.306Z,5.63
2018-08-06T03:28:00.255Z,5.63
2018-08-06T03:29:00.278Z,5.63
2018-08-06T03:30:00.284Z,5.63
2018-08-06T03:31:00.365Z,5.63
2018-08-06T03:32:00.331Z,5.63
2018-08-06T03:33:00.335Z,5.63
2018-08-06T03:34:00.340Z,11.25
2018-08-06T03:35:00.424Z,11.25
2018-08-06T03:36:00.361Z,11.25
2018-08-06T03:37:00.420Z,11.25
2018-08-06T03:38:00.420Z,11.25
2018-08-06T03:39:00.418Z,11.25
2018-08-06T03:40:00.408Z,16.88
2018-08-06T03:41:00.434Z,16.88
2018-08-06T03:42:00.447Z,16.88
2018-08-06T03:43:00.464Z,16.88
2018-08-06T03:44:00.446Z,16.88
2018-08-06T03:45:00.475Z,16.88
2018-08-06T03:46:00.470Z,22.50
2018-08-06T03:47:00.503Z,22.50
2018-08-06T03:48:00.498Z,22.50
2018-08-06T03:49:00.535Z,22.50
2018-08-06T03:50:00.546Z,22.50
2018-08-06T03:51:00.536Z,28.13
2018-08-06T03:52:00.593Z,28.13
2018-08-06T03:53:00.538Z,28.13
2018-08-06T03:54:00.587Z,28.13
2018-08-06T03:55:00.589Z,33.75
2018-08-06T03:56:00.643Z,33.75
2018-08-06T03:57:00.651Z,39.38
2018-08-06T03:58:00.607Z,45.00
2018-08-06T03:59:00.611Z,50.63
2018-08-06T04:00:00.665Z,56.25
2018-08-06T04:01:00.650Z,61.88
2018-08-06T04:02:00.693Z,61.88
2018-08-06T04:03:00.704Z,67.50
2018-08-06T04:04:00.699Z,73.13
2018-08-06T04:05:00.681Z,73.13
2018-08-06T04:06:00.700Z,78.75
2018-08-06T04:07:00.769Z,78.75
2018-08-06T04:08:00.787Z,84.38
2018-08-06T04:09:00.748Z,84.38
2018-08-06T04:10:00.796Z,84.38
2018-08-06T04:11:00.774Z,90.00
2018-08-06T04:12:00.818Z,90.00
2018-08-06T04:13:00.828Z,95.63
2018-08-06T04:14:00.860Z,95.63
2018-08-06T04:15:00.810Z,101.25
2018-08-06T04:16:00.826Z,101.25
2018-08-06T04:17:00.864Z,101.25
2018-08-06T04:18:00.891Z,106.88
2018-08-06T04:19:00.919Z,106.88
2018-08-06T04:20:00.886Z,112.50
2018-08-06T04:21:00.906Z,112.50
2018-08-06T04:22:00.923Z,118.13
2018-08-06T04:23:00.932Z,118.13
2018-08-06T04:24:00.935Z,123.75
2018-08-06T04:25:00.964Z,123.75
2018-08-06T04:26:00.932Z,123.75
2018-08-06T04:27:00.959Z,129.38
2018-08-06T04:28:01.033Z,129.38
2018-08-06T04:29:01.017Z,135.00
2018-08-06T04:30:01.029Z,140.63
2018-08-06T04:31:01.087Z,140.63
2018-08-06T04:32:01.299Z,140.63
2018-08-06T04:33:01.107Z,146.25
2018-08-06T04:34:01.087Z,146.25
2018-08-06T04:35:01.061Z,151.88
2018-08-06T04:36:01.082Z,151.88
2018-08-06T04:37:01.239Z,151.88
2018-08-06T04:38:01.102Z,157.50
2018-08-06T04:39:01.165Z,163.13
2018-08-06T04:40:01.129Z,163.13
2018-08-06T04:41:01.182Z,174.38
2018-08-06T04:42:03.358Z,174.38
2018-08-06T04:43:01.151Z,180.00
2018-08-06T04:44:01.193Z,185.63
2018-08-06T04:45:01.201Z,185.63
2018-08-06T04:46:01.228Z,191.25
2018-08-06T04:47:01.218Z,191.25
2018-08-06T04:48:01.323Z,202.50
2018-08-06T04:49:01.237Z,202.50
2018-08-06T04:50:01.259Z,202.50
2018-08-06T04:51:01.297Z,213.75
2018-08-06T04:52:01.302Z,213.75
2018-08-06T04:53:01.332Z,219.38
2018-08-06T04:54:01.337Z,225.00
2018-08-06T04:55:01.345Z,230.63
2018-08-06T04:56:01.329Z,236.25
2018-08-06T04:57:01.411Z,236.25
2018-08-06T04:58:01.379Z,241.88
2018-08-06T04:59:01.425Z,241.88
2018-08-06T05:00:01.379Z,253.13
2018-08-06T05:01:01.385Z,258.75
2018-08-06T05:02:01.413Z,264.38
2018-08-06T05:03:01.412Z,270.00
2018-08-06T05:04:01.465Z,270.00
2018-08-06T05:05:01.498Z,275.63
2018-08-06T05:06:01.477Z,281.25
2018-08-06T05:07:01.492Z,286.88
2018-08-06T05:08:01.491Z,286.88
2018-08-06T05:09:01.479Z,292.50
2018-08-06T05:10:01.715Z,298.13
2018-08-06T05:11:01.536Z,303.75
2018-08-06T05:12:01.546Z,309.38
2018-08-06T05:13:01.533Z,320.63
2018-08-06T05:14:01.689Z,292.50
2018-08-06T05:15:01.686Z,326.25
2018-08-06T05:16:01.596Z,331.88
2018-08-06T05:17:02.300Z,180.00
2018-08-06T05:18:01.617Z,343.13
2018-08-06T05:19:01.630Z,354.38
2018-08-06T05:20:01.660Z,354.38
2018-08-06T05:21:01.662Z,360.00
2018-08-06T05:22:01.739Z,365.63
2018-08-06T05:23:01.667Z,365.63
2018-08-06T05:24:01.745Z,376.88
2018-08-06T05:25:01.711Z,376.88
2018-08-06T05:26:01.743Z,376.88
2018-08-06T05:27:01.762Z,376.88
2018-08-06T05:28:01.777Z,382.50
2018-08-06T05:29:01.767Z,382.50
2018-08-06T05:30:01.793Z,388.13
2018-08-06T05:31:01.812Z,388.13
2018-08-06T05:32:01.884Z,393.75
2018-08-06T05:33:02.539Z,393.75
2018-08-06T05:34:01.847Z,399.38
2018-08-06T05:35:01.915Z,399.38
2018-08-06T05:36:01.876Z,399.38
2018-08-06T05:37:01.908Z,405.00
2018-08-06T05:38:01.951Z,410.63
2018-08-06T05:39:02.073Z,405.00
2018-08-06T05:40:01.952Z,405.00
2018-08-06T05:41:01.922Z,410.63
2018-08-06T05:42:01.976Z,410.63
2018-08-06T05:43:01.960Z,416.25
2018-08-06T05:44:01.980Z,416.25
2018-08-06T05:45:01.963Z,416.25
2018-08-06T05:46:02.058Z,416.25
2018-08-06T05:47:02.025Z,416.25
2018-08-06T05:48:02.071Z,421.88
2018-08-06T05:49:02.052Z,421.88
2018-08-06T05:50:02.094Z,421.88
2018-08-06T05:51:02.052Z,427.50
2018-08-06T05:52:02.128Z,427.50
2018-08-06T05:53:02.144Z,427.50
2018-08-06T05:54:02.145Z,427.50
2018-08-06T05:55:02.127Z,427.50
2018-08-06T05:56:02.128Z,433.13
2018-08-06T05:57:02.149Z,427.50
2018-08-06T05:58:02.220Z,427.50
2018-08-06T05:59:02.194Z,427.50
2018-08-06T06:00:02.217Z,427.50
2018-08-06T06:01:02.329Z,427.50
2018-08-06T06:02:02.379Z,427.50
2018-08-06T06:03:02.248Z,427.50
2018-08-06T06:04:02.356Z,427.50
2018-08-06T06:05:02.293Z,433.13
2018-08-06T06:06:02.310Z,433.13
2018-08-06T06:07:02.302Z,433.13
2018-08-06T06:08:03.186Z,433.13
2018-08-06T06:09:02.346Z,433.13
2018-08-06T06:10:02.389Z,433.13
2018-08-06T06:11:02.371Z,433.13
2018-08-06T06:12:02.422Z,433.13
2018-08-06T06:13:02.810Z,433.13
2018-08-06T06:14:02.470Z,433.13
2018-08-06T06:15:02.626Z,427.50
2018-08-06T06:16:02.473Z,421.88
2018-08-06T06:17:02.450Z,421.88
2018-08-06T06:18:02.453Z,405.00
2018-08-06T06:19:02.491Z,416.25
2018-08-06T06:20:02.519Z,410.63
2018-08-06T06:21:02.564Z,405.00
2018-08-06T06:22:02.526Z,399.38
2018-08-06T06:23:02.619Z,393.75
2018-08-06T06:24:02.564Z,388.13
2018-08-06T06:25:02.611Z,382.50
2018-08-06T06:26:02.640Z,376.88
2018-08-06T06:27:02.612Z,371.25
2018-08-06T06:28:02.616Z,365.63
2018-08-06T06:29:02.618Z,360.00
2018-08-06T06:30:02.736Z,354.38
2018-08-06T06:31:02.699Z,348.75
2018-08-06T06:32:02.673Z,348.75
2018-08-06T06:33:03.881Z,343.13
2018-08-06T06:34:02.708Z,337.50
2018-08-06T06:35:02.830Z,331.88
2018-08-06T06:36:02.742Z,326.25
2018-08-06T06:37:02.767Z,326.25
2018-08-06T06:38:02.753Z,315.00
2018-08-06T06:39:02.781Z,315.00
2018-08-06T06:40:02.863Z,303.75
2018-08-06T06:41:02.836Z,298.13
2018-08-06T06:42:02.824Z,298.13
2018-08-06T06:43:02.871Z,292.50
2018-08-06T06:44:02.865Z,286.88
2018-08-06T06:45:02.898Z,281.25
2018-08-06T06:46:02.904Z,270.00
2018-08-06T06:47:02.914Z,264.38
2018-08-06T06:48:02.951Z,258.75
2018-08-06T06:49:03.042Z,258.75
2018-08-06T06:50:02.997Z,247.50
2018-08-06T06:51:03.011Z,241.88
2018-08-06T06:52:02.982Z,230.63
2018-08-06T06:53:03.008Z,213.75
2018-08-06T06:54:03.029Z,202.50
2018-08-06T06:55:03.039Z,180.00
2018-08-06T06:56:03.125Z,174.38
2018-08-06T06:57:03.094Z,180.00
2018-08-06T06:58:03.105Z,174.38
2018-08-06T06:59:03.100Z,168.75
2018-08-06T07:00:03.160Z,168.75
2018-08-06T07:01:03.143Z,168.75
2018-08-06T07:02:03.200Z,163.13
2018-08-06T07:03:03.171Z,163.13
2018-08-06T07:04:03.236Z,163.13
2018-08-06T07:05:03.182Z,168.75
2018-08-06T07:06:03.202Z,168.75
2018-08-06T07:07:03.258Z,163.13
2018-08-06T07:08:03.257Z,163.13
2018-08-06T07:09:03.237Z,163.13
2018-08-06T07:10:03.299Z,163.13
2018-08-06T07:11:03.313Z,180.00
2018-08-06T07:12:03.351Z,191.25
2018-08-06T07:13:03.313Z,180.00
2018-08-06T07:14:03.325Z,168.75
2018-08-06T07:15:03.329Z,174.38
2018-08-06T07:16:03.445Z,180.00
2018-08-06T07:17:03.443Z,196.88
2018-08-06T07:18:03.406Z,208.13
2018-08-06T07:19:03.396Z,180.00
2018-08-06T07:20:03.427Z,185.63
2018-08-06T07:21:03.483Z,185.63
2018-08-06T07:22:03.450Z,185.63
2018-08-06T07:23:03.500Z,174.38
2018-08-06T07:24:03.578Z,168.75
2018-08-06T07:25:05.098Z,168.75
2018-08-06T07:26:05.144Z,163.13
2018-08-06T07:27:03.553Z,168.75
2018-08-06T07:28:03.591Z,168.75
2018-08-06T07:29:03.543Z,157.50
2018-08-06T07:30:03.539Z,157.50
2018-08-06T07:31:03.621Z,146.25
2018-08-06T07:32:03.595Z,168.75
2018-08-06T07:33:03.661Z,163.13
2018-08-06T07:34:03.639Z,174.38
2018-08-06T07:35:03.628Z,168.75
2018-08-06T07:36:03.690Z,151.88
2018-08-06T07:37:03.645Z,151.88
2018-08-06T07:38:03.717Z,163.13
2018-08-06T07:39:03.785Z,174.38
2018-08-06T07:40:03.704Z,180.00
2018-08-06T07:41:03.718Z,157.50
2018-08-06T07:42:03.756Z,168.75
2018-08-06T07:43:03.758Z,157.50
2018-08-06T07:44:03.792Z,151.88
2018-08-06T07:45:03.816Z,151.88
2018-08-06T07:46:03.855Z,146.25
2018-08-06T07:47:03.798Z,146.25
2018-08-06T07:48:03.858Z,146.25
2018-08-06T07:49:03.878Z,146.25
2018-08-06T07:50:03.877Z,146.25
2018-08-06T07:51:03.887Z,146.25
2018-08-06T07:52:03.868Z,146.25
2018-08-06T07:53:03.906Z,135.00
2018-08-06T07:54:03.930Z,146.25
2018-08-06T07:55:03.970Z,146.25
2018-08-06T07:56:04.008Z,146.25
2018-08-06T07:57:03.976Z,146.25
2018-08-06T07:58:04.024Z,146.25
2018-08-06T07:59:03.975Z,146.25
2018-08-06T08:00:03.982Z,146.25
2018-08-06T08:01:04.010Z,146.25
2018-08-06T08:02:03.999Z,146.25
2018-08-06T08:03:04.114Z,140.63
2018-08-06T08:04:04.059Z,129.38
2018-08-06T08:05:04.053Z,140.63
2018-08-06T08:06:04.083Z,157.50
2018-08-06T08:07:04.123Z,174.38
2018-08-06T08:08:04.202Z,180.00
2018-08-06T08:09:04.136Z,157.50
2018-08-06T08:10:04.104Z,151.88
2018-08-06T08:11:04.114Z,146.25
2018-08-06T08:12:04.189Z,146.25
2018-08-06T08:13:04.181Z,146.25
2018-08-06T08:14:04.246Z,140.63
2018-08-06T08:15:04.219Z,135.00
2018-08-06T08:16:04.222Z,129.38
2018-08-06T08:17:04.268Z,129.38
2018-08-06T08:18:04.222Z,129.38
2018-08-06T08:19:04.287Z,129.38
2018-08-06T08:20:04.381Z,129.38
2018-08-06T08:21:04.277Z,129.38
2018-08-06T08:22:04.290Z,123.75
2018-08-06T08:23:04.307Z,123.75
2018-08-06T08:24:04.375Z,123.75
2018-08-06T08:25:04.377Z,123.75
2018-08-06T08:26:04.345Z,123.75
2018-08-06T08:27:04.358Z,123.75
2018-08-06T08:28:04.422Z,123.75
2018-08-06T08:29:04.386Z,123.75
2018-08-06T08:30:04.421Z,123.75
2018-08-06T08:31:04.414Z,123.75
2018-08-06T08:32:04.456Z,129.38
2018-08-06T08:33:04.472Z,129.38
2018-08-06T08:34:04.513Z,129.38
2018-08-06T08:35:04.472Z,129.38
2018-08-06T08:36:04.478Z,129.38
2018-08-06T08:37:04.513Z,129.38
2018-08-06T08:38:04.486Z,129.38
2018-08-06T08:39:04.530Z,129.38
2018-08-06T08:40:04.551Z,129.38
2018-08-06T08:41:04.629Z,129.38
2018-08-06T08:42:04.615Z,123.75
2018-08-06T08:43:04.579Z,123.75
2018-08-06T08:44:04.586Z,123.75
2018-08-06T08:45:04.606Z,123.75
2018-08-06T08:46:04.598Z,123.75
2018-08-06T08:47:04.679Z,123.75
2018-08-06T08:48:04.637Z,123.75
2018-08-06T08:49:04.648Z,123.75
2018-08-06T08:50:04.645Z,123.75
2018-08-06T08:51:04.654Z,123.75
2018-08-06T08:52:04.715Z,123.75
2018-08-06T08:53:04.719Z,123.75
2018-08-06T08:54:04.731Z,123.75
2018-08-06T08:55:04.805Z,123.75
2018-08-06T08:56:04.772Z,123.75
2018-08-06T08:57:04.746Z,123.75
2018-08-06T08:58:04.838Z,123.75
2018-08-06T08:59:04.801Z,123.75
2018-08-06T09:00:04.805Z,123.75
2018-08-06T09:01:04.841Z,123.75
2018-08-06T09:02:04.940Z,123.75
2018-08-06T09:03:04.867Z,123.75
2018-08-06T09:04:04.841Z,123.75
2018-08-06T09:05:04.871Z,123.75
2018-08-06T09:06:04.873Z,123.75
2018-08-06T09:07:04.919Z,123.75
2018-08-06T09:08:04.970Z,123.75
2018-08-06T09:09:04.970Z,123.75
2018-08-06T09:10:04.932Z,123.75
2018-08-06T09:11:04.969Z,123.75
2018-08-06T09:12:04.947Z,123.75
2018-08-06T09:13:04.986Z,123.75
2018-08-06T09:14:05.068Z,123.75
2018-08-06T09:15:05.028Z,123.75
2018-08-06T09:16:05.067Z,123.75
2018-08-06T09:17:05.012Z,123.75
2018-08-06T09:18:05.049Z,123.75
2018-08-06T09:19:05.081Z,123.75
2018-08-06T09:20:05.079Z,123.75
2018-08-06T09:21:05.109Z,123.75
2018-08-06T09:22:05.116Z,123.75
2018-08-06T09:23:05.086Z,123.75
2018-08-06T09:24:05.158Z,123.75
2018-08-06T09:25:05.137Z,123.75
2018-08-06T09:26:05.127Z,123.75
2018-08-06T09:27:05.193Z,123.75
2018-08-06T09:28:05.160Z,123.75
2018-08-06T09:29:05.206Z,123.75
2018-08-06T09:30:05.205Z,123.75
2018-08-06T09:31:05.279Z,123.75
2018-08-06T09:32:05.214Z,123.75
2018-08-06T09:33:05.280Z,123.75
2018-08-06T09:34:05.297Z,123.75
2018-08-06T09:35:05.274Z,123.75
2018-08-06T09:36:05.314Z,123.75
2018-08-06T09:37:05.360Z,123.75
2018-08-06T09:38:05.315Z,123.75
2018-08-06T09:39:05.332Z,123.75
2018-08-06T09:40:05.325Z,123.75
2018-08-06T09:41:05.342Z,123.75
2018-08-06T09:42:05.398Z,123.75
2018-08-06T09:43:05.426Z,123.75
2018-08-06T09:44:05.405Z,123.75
2018-08-06T09:45:05.380Z,123.75
2018-08-06T09:46:05.452Z,123.75
2018-08-06T09:47:05.416Z,123.75
2018-08-06T09:48:05.461Z,123.75
2018-08-06T09:49:05.508Z,123.75
2018-08-06T09:50:05.460Z,123.75
2018-08-06T09:51:05.467Z,123.75
2018-08-06T09:52:05.519Z,123.75
2018-08-06T09:53:05.527Z,123.75
2018-08-06T09:54:05.538Z,123.75
2018-08-06T09:55:05.560Z,123.75
2018-08-06T09:56:05.557Z,123.75
2018-08-06T09:57:05.604Z,123.75
2018-08-06T09:58:05.573Z,123.75
2018-08-06T09:59:05.600Z,123.75
2018-08-06T10:00:05.631Z,123.75
2018-08-06T10:01:05.645Z,123.75
2018-08-06T10:02:05.626Z,123.75
2018-08-06T10:03:05.655Z,123.75
2018-08-06T10:04:05.661Z,123.75
2018-08-06T10:05:05.694Z,123.75
2018-08-06T10:06:05.883Z,123.75
2018-08-06T10:07:05.679Z,123.75
2018-08-06T10:08:05.744Z,123.75
2018-08-06T10:09:05.741Z,123.75
2018-08-06T10:10:05.798Z,123.75
2018-08-06T10:11:05.756Z,123.75
2018-08-06T10:12:05.817Z,123.75
2018-08-06T10:13:05.832Z,123.75
2018-08-06T10:14:05.773Z,123.75
2018-08-06T10:15:05.818Z,123.75
2018-08-06T10:16:05.817Z,123.75
2018-08-06T10:17:05.852Z,123.75
2018-08-06T10:18:05.888Z,123.75
2018-08-06T10:19:06.046Z,123.75
2018-08-06T10:20:05.899Z,118.13
2018-08-06T10:21:05.899Z,118.13
2018-08-06T10:22:06.697Z,118.13
2018-08-06T10:23:05.947Z,118.13
2018-08-06T10:24:05.984Z,118.13
2018-08-06T10:25:05.964Z,118.13
2018-08-06T10:26:05.965Z,118.13
2018-08-06T10:27:05.963Z,123.75
2018-08-06T10:28:05.986Z,118.13
2018-08-06T10:29:06.014Z,118.13
2018-08-06T10:30:06.141Z,118.13
2018-08-06T10:31:06.074Z,118.13
2018-08-06T10:32:06.096Z,118.13
2018-08-06T10:33:06.062Z,118.13
2018-08-06T10:34:06.068Z,118.13
2018-08-06T10:35:06.066Z,118.13
2018-08-06T10:36:06.152Z,118.13
2018-08-06T10:37:06.128Z,118.13
2018-08-06T10:38:06.124Z,118.13
2018-08-06T10:39:06.162Z,118.13
2018-08-06T10:40:06.138Z,118.13
2018-08-06T10:41:06.160Z,118.13
2018-08-06T10:42:06.164Z,118.13
2018-08-06T10:43:06.207Z,118.13
2018-08-06T10:44:06.240Z,118.13
2018-08-06T10:45:06.239Z,118.13
2018-08-06T10:46:06.225Z,118.13
2018-08-06T10:47:06.299Z,118.13
2018-08-06T10:48:06.270Z,118.13
2018-08-06T10:49:06.321Z,118.13
2018-08-06T10:50:06.335Z,118.13
2018-08-06T10:51:06.333Z,118.13
2018-08-06T10:52:06.346Z,118.13
2018-08-06T10:53:06.328Z,118.13
2018-08-06T10:54:06.341Z,118.13
2018-08-06T10:55:06.390Z,118.13
2018-08-06T10:56:06.367Z,118.13
2018-08-06T10:57:06.415Z,118.13
2018-08-06T10:58:06.398Z,118.13
2018-08-06T10:59:06.476Z,118.13
2018-08-06T11:00:06.431Z,118.13
2018-08-06T11:01:06.450Z,118.13
2018-08-06T11:02:06.502Z,118.13
2018-08-06T11:03:06.468Z,112.50
2018-08-06T11:04:06.529Z,112.50
2018-08-06T11:05:06.508Z,112.50
2018-08-06T11:06:06.514Z,112.50
2018-08-06T11:07:06.548Z,112.50
2018-08-06T11:08:06.595Z,112.50
2018-08-06T11:09:06.596Z,112.50
2018-08-06T11:10:06.553Z,112.50
2018-08-06T11:11:06.588Z,112.50
2018-08-06T11:12:06.588Z,112.50
2018-08-06T11:13:06.641Z,112.50
2018-08-06T11:14:06.683Z,112.50
2018-08-06T11:15:06.637Z,112.50
2018-08-06T11:16:06.663Z,112.50
2018-08-06T11:17:06.744Z,112.50
2018-08-06T11:18:06.690Z,112.50
2018-08-06T11:19:06.713Z,112.50
2018-08-06T11:20:06.718Z,112.50
2018-08-06T11:21:06.735Z,112.50
2018-08-06T11:22:06.769Z,112.50
2018-08-06T11:23:06.747Z,112.50
2018-08-06T11:24:06.790Z,112.50
2018-08-06T11:25:06.785Z,112.50
2018-08-06T11:26:06.827Z,112.50
2018-08-06T11:27:06.780Z,112.50
2018-08-06T11:28:06.879Z,112.50
2018-08-06T11:29:06.830Z,112.50
2018-08-06T11:30:06.841Z,112.50
2018-08-06T11:31:06.896Z,112.50
2018-08-06T11:32:06.948Z,112.50
2018-08-06T11:33:06.934Z,112.50
2018-08-06T11:34:06.911Z,112.50
2018-08-06T11:35:06.930Z,112.50
2018-08-06T11:36:06.944Z,112.50
2018-08-06T11:37:07.020Z,112.50
2018-08-06T11:38:06.994Z,112.50
2018-08-06T11:39:06.981Z,112.50
2018-08-06T11:40:07.026Z,112.50
2018-08-06T11:41:06.991Z,112.50
2018-08-06T11:42:07.026Z,112.50
2018-08-06T11:43:07.061Z,112.50
2018-08-06T11:44:07.072Z,112.50
2018-08-06T11:45:07.091Z,112.50
2018-08-06T11:46:07.118Z,112.50
2018-08-06T11:47:07.086Z,112.50
2018-08-06T11:48:07.119Z,112.50
2018-08-06T11:49:07.124Z,112.50
2018-08-06T11:50:07.135Z,112.50
2018-08-06T11:51:07.134Z,112.50
2018-08-06T11:52:07.193Z,112.50
2018-08-06T11:53:07.217Z,112.50
2018-08-06T11:54:07.191Z,112.50
2018-08-06T11:55:07.182Z,112.50
2018-08-06T11:56:07.196Z,112.50
2018-08-06T11:57:07.232Z,112.50
2018-08-06T11:58:07.290Z,112.50
2018-08-06T11:59:07.235Z,112.50
2018-08-06T12:00:07.268Z,112.50
2018-08-06T12:01:07.308Z,112.50
2018-08-06T12:02:07.343Z,112.50
2018-08-06T12:03:07.336Z,112.50
2018-08-06T12:04:07.370Z,112.50
2018-08-06T12:05:07.337Z,112.50
2018-08-06T12:06:07.365Z,112.50
2018-08-06T12:07:07.397Z,112.50
2018-08-06T12:08:07.432Z,112.50
2018-08-06T12:09:07.411Z,112.50
2018-08-06T12:10:07.435Z,112.50
2018-08-06T12:11:07.432Z,112.50
2018-08-06T12:12:07.433Z,112.50
2018-08-06T12:13:07.522Z,112.50
2018-08-06T12:14:07.466Z,112.50
2018-08-06T12:15:07.518Z,112.50
2018-08-06T12:16:07.487Z,112.50
2018-08-06T12:17:07.520Z,112.50
2018-08-06T12:18:07.548Z,112.50
2018-08-06T12:19:07.573Z,112.50
2018-08-06T12:20:07.561Z,112.50
2018-08-06T12:21:07.565Z,112.50
2018-08-06T12:22:07.573Z,112.50
2018-08-06T12:23:07.633Z,112.50
2018-08-06T12:24:07.628Z,112.50
2018-08-06T12:25:07.663Z,112.50
2018-08-06T12:26:07.674Z,112.50
2018-08-06T12:27:07.748Z,112.50
2018-08-06T12:28:07.658Z,112.50
2018-08-06T12:29:07.653Z,112.50
2018-08-06T12:30:07.746Z,112.50
2018-08-06T12:31:07.733Z,112.50
2018-08-06T12:32:07.748Z,112.50
2018-08-06T12:33:07.732Z,112.50
2018-08-06T12:34:07.750Z,112.50
2018-08-06T12:35:07.788Z,112.50
2018-08-06T12:36:07.814Z,112.50
2018-08-06T12:37:07.863Z,112.50
2018-08-06T12:38:07.892Z,112.50
2018-08-06T12:39:07.844Z,112.50
2018-08-06T12:40:07.834Z,112.50
2018-08-06T12:41:07.840Z,112.50
2018-08-06T12:42:07.861Z,112.50
2018-08-06T12:43:07.909Z,112.50
2018-08-06T12:44:07.941Z,112.50